Time;durP1;ratioP1;P1;durP2;ratioP2;P2;SDS_P1;SDS_P2;PMS_P1;PMS_P2;Temp;Humidity;BMP_temperature;BMP_pressure;BME280_temperature;BME280_humidity;BME280_pressure;Samples;Min_cycle;Max_cycle;Signal;HPM_P1;HPM_P2
2022/09/30 00:01:00;;;;;;;291.50;11.38;;;6.30;99.90;;;;;;5054388;28;20033;-29
2022/09/30 00:03:27;;;;;;;343.67;14.68;;;6.20;99.90;;;;;;5054289;28;20122;-29
2022/09/30 00:06:03;;;;;;;70.70;6.00;;;6.10;99.90;;;;;;5053435;28;20136;-29
2022/09/30 00:08:28;;;;;;;26.58;6.97;;;6.10;99.90;;;;;;5054247;28;20052;-29
2022/09/30 00:11:05;;;;;;;8.10;4.47;;;6.10;99.90;;;;;;5054244;28;20037;-29
2022/09/30 00:13:33;;;;;;;15.13;4.97;;;6.10;99.90;;;;;;5054258;28;20051;-30
2022/09/30 00:16:00;;;;;;;5.93;3.97;;;6.10;99.90;;;;;;5054153;28;20110;-29
2022/09/30 00:18:26;;;;;;;5.45;4.10;;;6.10;99.90;;;;;;5054050;28;20502;-29
2022/09/30 00:20:52;;;;;;;8.48;5.15;;;6.00;99.90;;;;;;5052813;28;20040;-29
2022/09/30 00:23:19;;;;;;;7.32;5.15;;;5.90;99.90;;;;;;5054517;28;20114;-29
2022/09/30 00:25:45;;;;;;;34.10;9.07;;;5.90;99.90;;;;;;5053044;28;20110;-29
2022/09/30 00:28:10;;;;;;;9.23;6.03;;;6.00;99.90;;;;;;5052812;28;20479;-29
2022/09/30 00:30:36;;;;;;;10.80;5.65;;;6.00;99.90;;;;;;5053894;28;20462;-29
2022/09/30 00:33:02;;;;;;;27.55;10.73;;;6.00;99.90;;;;;;5053846;28;20406;-30
2022/09/30 00:35:28;;;;;;;68.95;14.32;;;5.90;99.90;;;;;;5053647;28;20199;-29
2022/09/30 00:37:54;;;;;;;170.15;12.82;;;5.90;99.90;;;;;;5053816;28;20056;-29
2022/09/30 00:40:20;;;;;;;12.13;6.85;;;5.80;99.90;;;;;;5054327;28;20045;-29
2022/09/30 00:42:46;;;;;;;16.42;7.40;;;5.70;99.90;;;;;;5053790;28;20049;-29
2022/09/30 00:45:13;;;;;;;19.50;7.45;;;5.70;99.90;;;;;;5053731;28;20131;-29
2022/09/30 00:47:50;;;;;;;166.02;11.50;;;5.50;99.90;;;;;;5053737;28;20049;-29
2022/09/30 00:50:33;;;;;;;146.35;10.77;;;5.40;99.90;;;;;;5053754;28;20056;-29
2022/09/30 00:53:18;;;;;;;14.97;7.10;;;5.40;99.90;;;;;;5054252;28;20055;-29
2022/09/30 00:55:56;;;;;;;181.45;9.82;;;5.40;99.90;;;;;;5053371;28;20414;-30
2022/09/30 00:58:30;;;;;;;195.02;11.48;;;5.40;99.90;;;;;;5053683;28;20135;-30
2022/09/30 01:00:58;;;;;;;30.17;6.00;;;5.30;99.90;;;;;;5053848;28;20041;-29
2022/09/30 01:03:25;;;;;;;32.72;6.75;;;5.30;99.90;;;;;;5053517;28;20502;-30
2022/09/30 01:05:52;;;;;;;42.65;7.45;;;5.20;99.90;;;;;;5053606;28;20390;-29
2022/09/30 01:08:19;;;;;;;78.35;7.32;;;5.20;99.90;;;;;;5053522;28;20052;-28
2022/09/30 01:10:45;;;;;;;128.93;8.75;;;5.20;99.90;;;;;;5053464;28;20044;-29
2022/09/30 01:13:13;;;;;;;125.03;12.35;;;5.10;99.90;;;;;;5052306;28;20088;-30
2022/09/30 01:15:50;;;;;;;158.75;15.20;;;5.10;99.90;;;;;;5052497;28;20497;-29
2022/09/30 01:18:28;;;;;;;217.10;14.55;;;5.20;99.90;;;;;;5053036;28;20386;-29
2022/09/30 01:20:54;;;;;;;108.65;7.68;;;5.30;99.90;;;;;;5053427;28;20041;-29
2022/09/30 01:23:38;;;;;;;24.80;6.10;;;5.20;99.90;;;;;;5053355;28;20045;-29
2022/09/30 01:26:22;;;;;;;166.02;17.40;;;5.10;99.90;;;;;;5053390;28;20394;-29
2022/09/30 01:29:06;;;;;;;13.32;8.07;;;5.30;99.90;;;;;;5053331;28;20068;-29
2022/09/30 01:31:32;;;;;;;14.18;7.90;;;5.40;99.90;;;;;;5055758;28;20140;-29
2022/09/30 01:34:10;;;;;;;11.85;8.02;;;5.60;99.90;;;;;;5057286;28;20132;-29
2022/09/30 01:36:47;;;;;;;17.08;10.23;;;5.60;99.90;;;;;;5057638;28;20144;-29
2022/09/30 01:39:45;;;;;;;48.78;10.80;;;5.80;99.90;;;;;;5057776;28;20049;-30
2022/09/30 01:42:19;;;;;;;28.00;11.95;;;5.80;99.90;;;;;;5057474;28;20052;-29
2022/09/30 01:45:16;;;;;;;14.45;9.18;;;5.70;99.90;;;;;;5057664;28;20128;-30
2022/09/30 01:47:45;;;;;;;13.30;7.93;;;5.50;99.90;;;;;;5056080;28;20174;-29
2022/09/30 01:50:13;;;;;;;29.25;10.98;;;5.50;99.90;;;;;;5056988;28;20055;-29
2022/09/30 01:53:13;;;;;;;26.60;11.80;;;5.40;99.90;;;;;;5056845;28;20119;-29
2022/09/30 01:55:48;;;;;;;64.63;14.05;;;5.50;99.90;;;;;;5051189;28;20061;-29
2022/09/30 01:58:36;;;;;;;12.70;7.65;;;5.50;99.90;;;;;;5055944;28;20055;-28
2022/09/30 02:01:08;;;;;;;22.55;11.55;;;5.40;99.90;;;;;;5056415;28;20391;-29
2022/09/30 02:03:44;;;;;;;15.55;8.90;;;5.40;99.90;;;;;;5057068;28;20084;-29
2022/09/30 02:06:15;;;;;;;15.68;9.48;;;5.50;99.90;;;;;;5056791;28;20053;-29
2022/09/30 02:09:03;;;;;;;15.18;8.63;;;5.60;99.90;;;;;;5055517;28;20041;-29
2022/09/30 02:11:33;;;;;;;12.40;7.93;;;5.60;99.90;;;;;;5056634;28;20402;-29
2022/09/30 02:14:21;;;;;;;13.30;7.97;;;5.60;99.90;;;;;;5057398;28;20051;-28
2022/09/30 02:17:10;;;;;;;16.08;9.65;;;5.60;99.90;;;;;;5055379;28;20106;-28
2022/09/30 02:20:00;;;;;;;21.38;12.00;;;5.70;99.90;;;;;;5039080;28;20364;-28
2022/09/30 02:22:43;;;;;;;14.95;9.25;;;5.80;99.90;;;;;;5055720;28;20057;-29
2022/09/30 02:25:19;;;;;;;15.00;9.70;;;5.80;99.90;;;;;;5056259;28;20045;-29
2022/09/30 02:27:52;;;;;;;23.70;12.70;;;5.80;99.90;;;;;;5055355;28;20131;-28
2022/09/30 02:30:18;;;;;;;19.38;11.60;;;5.90;99.90;;;;;;5056560;28;20383;-28
2022/09/30 02:32:49;;;;;;;18.90;11.38;;;6.00;99.90;;;;;;5056182;28;20053;-28
2022/09/30 02:35:30;;;;;;;18.08;10.60;;;6.10;99.90;;;;;;5056097;28;20064;-28
2022/09/30 02:38:09;;;;;;;16.60;10.32;;;6.10;99.90;;;;;;5056382;28;20220;-29
2022/09/30 02:40:38;;;;;;;15.23;10.63;;;6.10;99.90;;;;;;5055635;28;20049;-29
2022/09/30 02:43:05;;;;;;;19.52;12.10;;;6.20;99.90;;;;;;5054824;28;20053;-29
2022/09/30 02:45:42;;;;;;;20.83;13.02;;;6.40;99.90;;;;;;5056797;28;20044;-29
2022/09/30 02:48:25;;;;;;;17.05;11.00;;;6.40;99.90;;;;;;5056771;28;20371;-29
2022/09/30 02:51:10;;;;;;;19.42;11.02;;;6.50;99.90;;;;;;5056468;28;20131;-28
2022/09/30 02:53:50;;;;;;;13.73;9.27;;;6.50;99.90;;;;;;5056583;28;20045;-29
2022/09/30 02:56:30;;;;;;;11.32;8.38;;;6.50;99.90;;;;;;5055807;28;20512;-30
2022/09/30 02:58:57;;;;;;;20.08;10.68;;;6.40;99.90;;;;;;5056601;28;20052;-30
2022/09/30 03:01:24;;;;;;;17.67;11.15;;;6.50;99.90;;;;;;5054462;28;20102;-28
2022/09/30 03:03:54;;;;;;;16.25;10.15;;;6.50;99.90;;;;;;5055605;28;20053;-28
2022/09/30 03:06:20;;;;;;;12.57;8.73;;;6.50;99.90;;;;;;5056150;28;20053;-28
2022/09/30 03:08:46;;;;;;;11.93;8.95;;;6.50;99.90;;;;;;5055389;28;20099;-29
2022/09/30 03:11:24;;;;;;;9.75;7.20;;;6.40;99.90;;;;;;5055486;28;20051;-28
2022/09/30 03:14:00;;;;;;;9.05;6.82;;;6.30;99.90;;;;;;5055439;28;20056;-29
2022/09/30 03:16:46;;;;;;;8.73;6.88;;;6.30;99.90;;;;;;5055404;28;20080;-28
2022/09/30 03:19:24;;;;;;;8.10;6.63;;;6.10;99.90;;;;;;5054122;28;20140;-28
2022/09/30 03:22:31;;;;;;;8.27;6.75;;;6.10;99.90;;;;;;5055167;28;20040;-28
2022/09/30 03:25:21;;;;;;;10.23;7.70;;;6.10;99.90;;;;;;5055140;28;20071;-28
2022/09/30 03:28:15;;;;;;;12.75;9.57;;;6.10;99.90;;;;;;5054789;28;20048;-28
2022/09/30 03:30:58;;;;;;;14.82;8.73;;;6.00;99.90;;;;;;5055179;28;20047;-28
2022/09/30 03:33:47;;;;;;;15.57;10.85;;;6.10;99.90;;;;;;5055933;28;20099;-28
2022/09/30 03:36:29;;;;;;;21.80;14.68;;;6.00;99.90;;;;;;5035273;28;20049;-28
2022/09/30 03:39:02;;;;;;;22.80;15.15;;;6.00;99.90;;;;;;5053848;28;20064;-28
2022/09/30 03:41:44;;;;;;;16.08;13.02;;;6.00;99.90;;;;;;5055732;28;20127;-29
2022/09/30 03:44:30;;;;;;;18.10;13.77;;;6.10;99.90;;;;;;5054865;28;20057;-28
2022/09/30 03:47:01;;;;;;;20.88;15.18;;;6.10;99.90;;;;;;5054390;28;20053;-28
2022/09/30 03:49:40;;;;;;;22.00;14.50;;;6.10;99.90;;;;;;5054776;28;20045;-28
2022/09/30 03:52:09;;;;;;;17.95;13.48;;;6.10;99.90;;;;;;5053535;28;20052;-28
2022/09/30 03:54:47;;;;;;;20.98;15.20;;;6.00;99.90;;;;;;5054893;28;20037;-28
2022/09/30 03:57:13;;;;;;;25.65;16.73;;;6.00;99.90;;;;;;5054322;28;20049;-28
2022/09/30 03:59:39;;;;;;;24.08;16.75;;;6.00;99.90;;;;;;5054362;28;20056;-28
2022/09/30 04:02:07;;;;;;;21.65;15.85;;;6.00;99.90;;;;;;5053517;28;20040;-28
2022/09/30 04:04:33;;;;;;;24.08;16.08;;;6.00;99.90;;;;;;5054468;28;20095;-28
2022/09/30 04:06:59;;;;;;;20.30;16.05;;;6.00;99.90;;;;;;5054380;28;20089;-28
2022/09/30 04:09:26;;;;;;;23.48;16.42;;;6.00;99.90;;;;;;5053422;28;20093;-28
2022/09/30 04:11:51;;;;;;;22.38;16.40;;;6.00;99.90;;;;;;5053197;28;20045;-28
2022/09/30 04:14:17;;;;;;;21.00;15.95;;;5.90;99.90;;;;;;5054584;28;20441;-28
2022/09/30 04:16:43;;;;;;;22.73;15.57;;;5.90;99.90;;;;;;5054269;28;20577;-28
2022/09/30 04:19:08;;;;;;;22.77;16.85;;;5.80;99.90;;;;;;5054237;28;20410;-29
2022/09/30 04:21:34;;;;;;;22.90;15.68;;;5.80;99.90;;;;;;5054096;28;20368;-29
2022/09/30 04:24:00;;;;;;;21.70;15.98;;;5.80;99.90;;;;;;5054931;28;20052;-28
2022/09/30 04:26:26;;;;;;;44.55;17.50;;;5.70;99.90;;;;;;5054088;28;20503;-28
2022/09/30 04:28:52;;;;;;;23.40;15.98;;;5.60;99.90;;;;;;5053425;28;20090;-28
2022/09/30 04:31:19;;;;;;;27.85;15.70;;;5.60;99.90;;;;;;5054053;28;20080;-28
2022/09/30 04:33:44;;;;;;;25.17;16.40;;;5.50;99.90;;;;;;5054002;28;20092;-28
2022/09/30 04:36:10;;;;;;;19.98;14.70;;;5.40;99.90;;;;;;5053686;28;20167;-28
2022/09/30 04:38:36;;;;;;;24.50;14.02;;;5.40;99.90;;;;;;5053900;28;20041;-28
2022/09/30 04:41:04;;;;;;;27.75;15.05;;;5.30;99.90;;;;;;5052681;28;20049;-28
2022/09/30 04:43:30;;;;;;;37.08;12.35;;;5.20;99.90;;;;;;5053857;28;20049;-28
2022/09/30 04:45:56;;;;;;;30.02;15.20;;;5.20;99.90;;;;;;5054317;28;20041;-29
2022/09/30 04:48:23;;;;;;;34.83;18.55;;;5.10;99.90;;;;;;5053757;28;20128;-28
2022/09/30 04:50:49;;;;;;;23.95;14.40;;;5.10;99.90;;;;;;5053777;28;20084;-28
2022/09/30 04:53:16;;;;;;;98.57;19.10;;;5.00;99.90;;;;;;5053631;28;20048;-29
2022/09/30 04:55:43;;;;;;;69.70;20.02;;;5.00;99.90;;;;;;5054570;28;20099;-28
2022/09/30 04:58:10;;;;;;;146.30;28.98;;;5.00;99.90;;;;;;5053604;28;20044;-28
2022/09/30 05:00:36;;;;;;;87.95;20.00;;;5.00;99.90;;;;;;5053535;28;20536;-28
2022/09/30 05:03:02;;;;;;;70.53;19.10;;;4.90;99.90;;;;;;5053559;28;20041;-28
2022/09/30 05:05:28;;;;;;;39.70;17.98;;;4.90;99.90;;;;;;5035494;28;20048;-28
2022/09/30 05:08:02;;;;;;;54.63;17.50;;;4.80;99.90;;;;;;5054126;28;20097;-28
2022/09/30 05:10:28;;;;;;;67.63;18.67;;;4.80;99.90;;;;;;5052722;28;20072;-28
2022/09/30 05:12:56;;;;;;;32.03;16.52;;;4.70;99.90;;;;;;5036720;28;20441;-28
2022/09/30 05:15:22;;;;;;;58.53;20.10;;;4.70;99.90;;;;;;5053141;28;20407;-28
2022/09/30 05:17:48;;;;;;;33.60;16.17;;;4.70;99.90;;;;;;5052718;28;20041;-28
2022/09/30 05:20:13;;;;;;;77.63;21.17;;;4.60;99.90;;;;;;5054142;28;20044;-29
2022/09/30 05:22:39;;;;;;;137.25;21.17;;;4.50;99.90;;;;;;5054230;28;20474;-28
2022/09/30 05:25:06;;;;;;;165.75;22.98;;;4.50;99.90;;;;;;5053815;28;20044;-29
2022/09/30 05:27:31;;;;;;;127.22;21.52;;;4.50;99.90;;;;;;5053607;28;20110;-28
2022/09/30 05:29:57;;;;;;;106.32;19.75;;;4.50;99.90;;;;;;5052060;28;20049;-28
2022/09/30 05:32:24;;;;;;;57.40;17.90;;;4.50;99.90;;;;;;5053980;28;20051;-28
2022/09/30 05:34:50;;;;;;;63.22;18.38;;;4.40;99.90;;;;;;5053240;28;20057;-28
2022/09/30 05:37:16;;;;;;;111.13;23.40;;;4.50;99.90;;;;;;5052099;28;20045;-29
2022/09/30 05:39:42;;;;;;;122.63;22.50;;;4.40;99.90;;;;;;5053808;28;20048;-28
2022/09/30 05:42:08;;;;;;;88.93;18.88;;;4.40;99.90;;;;;;5052844;28;20495;-28
2022/09/30 05:44:33;;;;;;;82.13;19.67;;;4.40;99.90;;;;;;5053201;28;20060;-28
2022/09/30 05:46:59;;;;;;;96.68;21.00;;;4.40;99.90;;;;;;5053122;28;20142;-28
2022/09/30 05:49:25;;;;;;;83.43;20.85;;;4.40;99.90;;;;;;5053634;28;20045;-28
2022/09/30 05:51:51;;;;;;;57.45;19.88;;;4.40;99.90;;;;;;5052102;28;20059;-28
2022/09/30 05:54:17;;;;;;;66.68;17.73;;;4.40;99.90;;;;;;5053006;28;20049;-28
2022/09/30 05:56:43;;;;;;;69.75;19.35;;;4.40;99.90;;;;;;5053081;28;20045;-29
2022/09/30 05:59:09;;;;;;;70.10;18.38;;;4.40;99.90;;;;;;5053034;28;20087;-28
2022/09/30 06:01:35;;;;;;;89.15;24.77;;;4.40;99.90;;;;;;5052952;28;20128;-28
2022/09/30 06:04:01;;;;;;;106.78;21.67;;;4.40;99.90;;;;;;5053002;28;20059;-29
2022/09/30 06:06:29;;;;;;;69.60;20.10;;;4.40;99.90;;;;;;5052252;28;20554;-28
2022/09/30 06:08:55;;;;;;;95.05;23.55;;;4.50;99.90;;;;;;5052895;28;20092;-28
2022/09/30 06:11:23;;;;;;;71.75;24.80;;;4.60;99.90;;;;;;5052943;28;20044;-29
2022/09/30 06:13:50;;;;;;;100.13;26.98;;;4.60;99.90;;;;;;5052927;28;20041;-30
2022/09/30 06:16:17;;;;;;;63.35;25.45;;;4.60;99.90;;;;;;5053290;28;20045;-28
2022/09/30 06:18:43;;;;;;;37.58;21.77;;;4.70;99.90;;;;;;5055520;28;20084;-29
2022/09/30 06:21:14;;;;;;;57.20;20.98;;;4.70;99.90;;;;;;5055518;28;20045;-28
2022/09/30 06:23:40;;;;;;;58.50;26.52;;;4.70;99.90;;;;;;5056373;28;20506;-28
2022/09/30 06:26:07;;;;;;;86.28;25.10;;;4.80;99.90;;;;;;5056378;28;20052;-28
2022/09/30 06:28:34;;;;;;;41.80;22.85;;;4.80;99.90;;;;;;5056328;28;20048;-29
2022/09/30 06:31:01;;;;;;;43.35;22.33;;;4.80;99.90;;;;;;5056295;28;20048;-29
2022/09/30 06:33:27;;;;;;;37.15;24.35;;;4.90;99.90;;;;;;5056220;28;20049;-29
2022/09/30 06:35:54;;;;;;;30.77;20.63;;;4.90;99.90;;;;;;5056306;28;20088;-29
2022/09/30 06:38:21;;;;;;;33.72;23.13;;;5.00;99.90;;;;;;5055960;28;20088;-28
2022/09/30 06:40:49;;;;;;;27.30;20.90;;;5.00;99.90;;;;;;5056806;28;20045;-28
2022/09/30 06:43:16;;;;;;;33.25;23.13;;;5.10;99.90;;;;;;5056605;28;20450;-28
2022/09/30 06:45:43;;;;;;;32.95;21.83;;;5.10;99.90;;;;;;5055835;28;20095;-29
2022/09/30 06:48:09;;;;;;;34.42;24.67;;;5.20;99.90;;;;;;5055939;28;20047;-28
2022/09/30 06:50:37;;;;;;;43.35;30.10;;;5.30;99.90;;;;;;5054657;28;20049;-28
2022/09/30 06:53:05;;;;;;;29.63;22.45;;;5.30;99.90;;;;;;5055077;28;20102;-28
2022/09/30 06:55:31;;;;;;;31.17;22.90;;;5.50;99.90;;;;;;5055768;28;20103;-28
2022/09/30 06:57:57;;;;;;;29.67;22.25;;;5.50;99.90;;;;;;5055762;28;20131;-28
2022/09/30 07:00:24;;;;;;;27.65;20.33;;;5.60;99.90;;;;;;5055647;28;20128;-28
2022/09/30 07:02:50;;;;;;;26.05;21.08;;;5.70;99.90;;;;;;5055658;28;20045;-29
2022/09/30 07:05:16;;;;;;;37.97;25.60;;;5.80;99.90;;;;;;5055628;28;20211;-29
2022/09/30 07:07:42;;;;;;;29.77;22.27;;;5.90;99.90;;;;;;5054282;28;20049;-29
2022/09/30 07:10:09;;;;;;;28.35;21.23;;;6.00;99.90;;;;;;5054297;28;20053;-29
2022/09/30 07:12:35;;;;;;;31.90;23.63;;;6.10;99.90;;;;;;5053928;28;20426;-29
2022/09/30 07:15:01;;;;;;;25.73;20.73;;;6.20;99.90;;;;;;5054472;28;20044;-29
2022/09/30 07:17:27;;;;;;;24.02;19.30;;;6.30;99.90;;;;;;5054445;28;20049;-29
2022/09/30 07:19:54;;;;;;;29.35;21.80;;;6.20;99.90;;;;;;5054121;28;20049;-29
2022/09/30 07:22:29;;;;;;;31.73;21.30;;;6.60;99.90;;;;;;5054943;28;20514;-30
2022/09/30 07:25:00;;;;;;;24.02;18.10;;;6.80;99.90;;;;;;5055338;28;20045;-29
2022/09/30 07:27:28;;;;;;;18.02;14.95;;;7.10;99.90;;;;;;5055217;28;20049;-29
2022/09/30 07:29:54;;;;;;;20.15;16.75;;;7.10;99.90;;;;;;5054491;28;20119;-29
2022/09/30 07:32:21;;;;;;;18.58;16.33;;;7.30;99.90;;;;;;5054584;28;20418;-29
2022/09/30 07:34:47;;;;;;;17.60;14.70;;;7.50;99.90;;;;;;5054972;28;20135;-31
2022/09/30 07:37:15;;;;;;;17.52;14.93;;;7.70;99.90;;;;;;5055548;28;20527;-29
2022/09/30 07:39:45;;;;;;;16.73;12.80;;;7.80;99.90;;;;;;5055733;28;20483;-29
2022/09/30 07:42:11;;;;;;;15.23;12.23;;;8.00;99.90;;;;;;5053380;28;20487;-29
2022/09/30 07:44:43;;;;;;;15.57;12.73;;;8.20;99.90;;;;;;5037299;28;20087;-29
2022/09/30 07:47:13;;;;;;;13.25;11.50;;;8.30;99.90;;;;;;5054847;28;20095;-30
2022/09/30 07:49:41;;;;;;;11.52;10.23;;;8.50;99.90;;;;;;5054145;28;20051;-30
2022/09/30 07:52:09;;;;;;;13.40;10.93;;;8.60;99.90;;;;;;5054899;28;20106;-30
2022/09/30 07:54:34;;;;;;;14.48;11.85;;;8.80;99.90;;;;;;5053657;28;20506;-30
2022/09/30 07:57:02;;;;;;;14.70;11.00;;;8.90;99.90;;;;;;5054677;28;20049;-31
2022/09/30 07:59:29;;;;;;;13.13;10.45;;;9.10;99.90;;;;;;5054560;28;20091;-30
2022/09/30 08:01:54;;;;;;;11.68;9.00;;;9.30;99.90;;;;;;5054477;28;20049;-30
2022/09/30 08:04:22;;;;;;;9.23;7.47;;;9.50;99.90;;;;;;5054472;28;20045;-30
2022/09/30 08:06:57;;;;;;;7.07;6.22;;;9.60;99.90;;;;;;5055239;28;20045;-30
2022/09/30 08:09:25;;;;;;;8.95;6.65;;;9.70;99.90;;;;;;5055012;28;20052;-30
2022/09/30 08:11:51;;;;;;;10.20;6.43;;;9.80;99.90;;;;;;5054334;28;20056;-31
2022/09/30 08:14:25;;;;;;;9.25;6.22;;;10.10;99.90;;;;;;5054283;28;20053;-30
2022/09/30 08:16:51;;;;;;;7.72;5.80;;;10.30;99.90;;;;;;5054880;28;20045;-31
2022/09/30 08:19:22;;;;;;;9.40;6.20;;;10.50;99.90;;;;;;5053537;28;20132;-30
2022/09/30 08:21:49;;;;;;;7.13;6.32;;;10.70;99.90;;;;;;5054139;28;20039;-31
2022/09/30 08:24:15;;;;;;;7.07;6.07;;;10.80;99.90;;;;;;5037397;28;20048;-30
2022/09/30 08:26:41;;;;;;;7.50;5.75;;;11.00;99.90;;;;;;5054116;28;20134;-32
2022/09/30 08:29:09;;;;;;;7.97;5.25;;;11.10;99.90;;;;;;5054061;28;20103;-30
2022/09/30 08:31:35;;;;;;;8.85;6.13;;;11.30;99.90;;;;;;5054061;28;20056;-31
2022/09/30 08:34:02;;;;;;;6.72;4.68;;;11.40;99.90;;;;;;5053575;28;20045;-31
2022/09/30 08:36:28;;;;;;;6.45;4.95;;;11.50;99.90;;;;;;5054238;28;20126;-31
2022/09/30 08:38:54;;;;;;;5.93;4.25;;;11.70;99.90;;;;;;5053884;28;20487;-31
2022/09/30 08:41:23;;;;;;;5.72;5.10;;;11.80;99.90;;;;;;5053480;28;20056;-31
2022/09/30 08:43:57;;;;;;;8.23;5.18;;;11.90;99.90;;;;;;5053887;28;20044;-31
2022/09/30 08:46:26;;;;;;;8.50;5.45;;;12.00;99.90;;;;;;5054109;28;20045;-32
2022/09/30 08:49:10;;;;;;;7.15;5.45;;;12.10;99.90;;;;;;5052808;28;20049;-31
2022/09/30 08:51:45;;;;;;;7.28;5.10;;;12.10;99.90;;;;;;5054614;28;20115;-31
2022/09/30 08:54:15;;;;;;;5.53;4.72;;;12.30;99.90;;;;;;5053534;28;20055;-32
2022/09/30 08:56:43;;;;;;;7.60;5.65;;;12.30;99.90;;;;;;5054004;28;20088;-31
2022/09/30 08:59:22;;;;;;;6.82;5.00;;;12.40;99.90;;;;;;5054222;28;20391;-31
2022/09/30 09:01:52;;;;;;;5.47;4.30;;;12.50;99.90;;;;;;5053583;28;20479;-31
2022/09/30 09:04:18;;;;;;;6.13;4.80;;;12.60;99.90;;;;;;5053589;28;20052;-31
2022/09/30 09:07:12;;;;;;;5.82;4.53;;;12.80;99.90;;;;;;5053571;28;20049;-31
2022/09/30 09:09:55;;;;;;;6.32;3.92;;;13.60;99.90;;;;;;5052694;28;20049;-31
2022/09/30 09:12:49;;;;;;;4.75;4.22;;;14.70;99.90;;;;;;5054205;28;20056;-31
2022/09/30 09:15:27;;;;;;;5.85;5.25;;;15.00;99.90;;;;;;5053511;28;20060;-31
2022/09/30 09:18:14;;;;;;;5.47;4.50;;;15.40;99.90;;;;;;5053465;28;20471;-30
2022/09/30 09:20:57;;;;;;;10.05;4.80;;;15.50;99.90;;;;;;5053394;28;20052;-30
2022/09/30 09:23:23;;;;;;;4.70;4.00;;;15.60;99.90;;;;;;5052555;28;20045;-30
2022/09/30 09:25:52;;;;;;;5.82;4.50;;;15.60;99.90;;;;;;5053933;28;20055;-31
2022/09/30 09:28:32;;;;;;;4.97;4.50;;;15.80;99.90;;;;;;5052695;28;20123;-30
2022/09/30 09:30:59;;;;;;;5.45;4.80;;;15.60;99.90;;;;;;5053734;28;20391;-31
2022/09/30 09:33:38;;;;;;;4.50;3.97;;;15.80;99.90;;;;;;5053314;28;20056;-30
2022/09/30 09:36:21;;;;;;;7.28;4.20;;;15.80;99.90;;;;;;5051848;28;20053;-30
2022/09/30 09:38:47;;;;;;;5.22;4.30;;;15.60;99.90;;;;;;5052905;28;20057;-30
2022/09/30 09:41:27;;;;;;;8.73;4.13;;;15.50;99.90;;;;;;5053140;28;20041;-30
2022/09/30 09:43:59;;;;;;;201.15;119.07;;;15.30;99.90;;;;;;5053534;28;20131;-30
2022/09/30 09:46:27;;;;;;;22.23;17.27;;;15.50;99.90;;;;;;5052815;28;20550;-30
2022/09/30 09:49:22;;;;;;;11.15;10.13;;;15.90;99.90;;;;;;5053953;28;20356;-31
2022/09/30 09:52:12;;;;;;;6.88;4.35;;;15.80;99.90;;;;;;5054395;28;20483;-31
2022/09/30 09:54:51;;;;;;;4.60;3.50;;;15.90;99.90;;;;;;5056966;28;20479;-30
2022/09/30 09:57:24;;;;;;;3.28;2.97;;;16.30;99.90;;;;;;5055955;28;20138;-30
2022/09/30 09:59:57;;;;;;;2.83;2.58;;;16.50;1.00;;;;;;5056894;28;20053;-30
2022/09/30 10:02:26;;;;;;;8.25;5.60;;;16.60;99.90;;;;;;5056897;28;20044;-30
2022/09/30 10:05:00;;;;;;;3.00;2.75;;;16.70;1.00;;;;;;5056774;28;20049;-31
2022/09/30 10:07:28;;;;;;;3.83;2.35;;;16.60;99.90;;;;;;5056774;28;20049;-30
2022/09/30 10:10:07;;;;;;;5.35;2.50;;;16.40;99.90;;;;;;5057310;28;20056;-30
2022/09/30 10:12:33;;;;;;;3.28;2.80;;;16.70;49.00;;;;;;5057316;28;20045;-30
2022/09/30 10:15:22;;;;;;;3.15;2.85;;;17.20;99.90;;;;;;5039406;28;20044;-30
2022/09/30 10:18:36;;;;;;;3.20;2.80;;;17.30;99.70;;;;;;5057135;28;20048;-30
2022/09/30 10:21:22;;;;;;;3.20;2.60;;;17.60;99.90;;;;;;5054717;28;20103;-30
2022/09/30 10:23:48;;;;;;;5.72;2.75;;;17.90;99.90;;;;;;5055200;28;20052;-30
2022/09/30 10:26:14;;;;;;;4.13;3.35;;;17.90;1.00;;;;;;5056392;28;20053;-29
2022/09/30 10:28:54;;;;;;;3.67;2.67;;;17.80;1.00;;;;;;5055267;28;20084;-30
2022/09/30 10:31:36;;;;;;;4.05;3.22;;;17.80;99.90;;;;;;5055735;28;20056;-31
2022/09/30 10:34:21;;;;;;;4.40;3.42;;;18.00;75.90;;;;;;5056867;28;20049;-29
2022/09/30 10:36:47;;;;;;;4.20;3.80;;;17.90;35.50;;;;;;5055261;28;20049;-29
2022/09/30 10:39:28;;;;;;;4.18;3.63;;;17.70;99.90;;;;;;5056137;28;20557;-29
2022/09/30 10:42:24;;;;;;;4.18;3.58;;;17.90;9.70;;;;;;5055125;28;20131;-30
2022/09/30 10:45:05;;;;;;;4.45;3.35;;;17.90;99.90;;;;;;5056102;28;20048;-30
2022/09/30 10:47:32;;;;;;;3.47;2.90;;;17.90;98.50;;;;;;5039049;28;20059;-30
2022/09/30 10:50:04;;;;;;;6.15;3.42;;;18.10;59.70;;;;;;5056762;28;20136;-29
2022/09/30 10:52:39;;;;;;;6.68;4.38;;;18.50;99.90;;;;;;5056523;28;20056;-29
2022/09/30 10:55:08;;;;;;;6.03;3.75;;;18.40;99.90;;;;;;5054848;28;20053;-30
2022/09/30 10:57:36;;;;;;;3.60;3.22;;;18.00;1.00;;;;;;5054862;28;20110;-29
2022/09/30 11:00:05;;;;;;;3.30;3.00;;;17.80;99.90;;;;;;5038945;28;20055;-30
2022/09/30 11:02:44;;;;;;;4.30;2.40;;;17.90;1.00;;;;;;5055622;28;20118;-29
2022/09/30 11:05:18;;;;;;;3.63;2.58;;;18.20;99.90;;;;;;5055321;28;20045;-30
2022/09/30 11:08:00;;;;;;;3.72;2.72;;;18.60;99.90;;;;;;5054782;28;20080;-29
2022/09/30 11:10:48;;;;;;;2.30;2.10;;;18.70;1.00;;;;;;5055555;28;20077;-30
2022/09/30 11:13:25;;;;;;;4.53;2.03;;;19.00;99.90;;;;;;5037961;28;20060;-30
2022/09/30 11:16:01;;;;;;;2.75;1.92;;;19.30;99.90;;;;;;5056383;28;20045;-29
2022/09/30 11:18:52;;;;;;;1.63;1.52;;;19.00;99.90;;;;;;5055964;28;20052;-29
2022/09/30 11:21:50;;;;;;;5.32;1.77;;;18.50;99.90;;;;;;5055289;28;20048;-29
2022/09/30 11:24:24;;;;;;;3.33;1.58;;;18.10;1.00;;;;;;5055924;28;20045;-30
2022/09/30 11:27:14;;;;;;;2.70;2.03;;;18.00;99.70;;;;;;5055344;28;20398;-29
2022/09/30 11:29:59;;;;;;;3.63;1.60;;;18.20;99.90;;;;;;5055060;28;20045;-29
2022/09/30 11:32:36;;;;;;;4.88;2.20;;;18.20;99.90;;;;;;5054031;28;20045;-28
2022/09/30 11:35:05;;;;;;;4.05;2.00;;;18.20;1.00;;;;;;5053792;28;20064;-29
2022/09/30 11:37:39;;;;;;;3.30;2.08;;;18.20;1.00;;;;;;5059925;28;20048;-29
2022/09/30 11:40:28;;;;;;;4.57;1.88;;;18.60;1.00;;;;;;5059275;28;20103;-29
2022/09/30 11:43:20;;;;;;;3.53;1.75;;;18.90;1.00;;;;;;5064495;28;20119;-30
2022/09/30 11:46:08;;;;;;;1.67;1.17;;;19.20;99.90;;;;;;5056322;28;20159;-30
2022/09/30 11:48:52;;;;;;;1.65;1.05;;;19.60;41.50;;;;;;5054863;28;20048;-29
2022/09/30 11:51:38;;;;;;;3.78;1.60;;;19.60;1.00;;;;;;5055107;28;20045;-28
2022/09/30 11:54:25;;;;;;;2.28;1.00;;;19.60;1.00;;;;;;5053506;28;20103;-28
2022/09/30 11:56:59;;;;;;;1.88;1.42;;;19.00;1.00;;;;;;5056827;28;20049;-29
2022/09/30 11:59:41;;;;;;;3.47;0.98;;;18.40;1.00;;;;;;5055461;28;20053;-28
2022/09/30 12:02:43;;;;;;;1.92;0.93;;;17.90;1.00;;;;;;5057353;28;20056;-28
2022/09/30 12:05:35;;;;;;;2.28;1.17;;;17.70;1.00;;;;;;5066077;28;20187;-28
2022/09/30 12:08:20;;;;;;;1.63;1.35;;;17.40;67.30;;;;;;5061216;28;20052;-28
2022/09/30 12:11:09;;;;;;;1.90;1.00;;;17.80;99.90;;;;;;5060725;28;20032;-28
2022/09/30 12:13:43;;;;;;;2.45;1.05;;;18.00;55.70;;;;;;5059306;28;20045;-28
2022/09/30 12:16:16;;;;;;;1.65;1.02;;;18.50;76.60;;;;;;5066070;28;20490;-28
2022/09/30 12:18:47;;;;;;;1.13;0.73;;;18.90;1.00;;;;;;5053714;28;20045;-29
2022/09/30 12:21:23;;;;;;;2.00;1.08;;;19.10;1.00;;;;;;5072555;28;20045;-29
2022/09/30 12:23:57;;;;;;;1.60;1.13;;;18.90;1.00;;;;;;5072295;28;20044;-27
2022/09/30 12:26:24;;;;;;;2.28;1.00;;;18.20;1.00;;;;;;5061198;28;20055;-28
2022/09/30 12:32:08;;;;;;;1.23;0.98;;;16.90;99.90;;;;;;5074011;28;20049;-27
2022/09/30 12:34:36;;;;;;;2.28;0.82;;;16.60;99.90;;;;;;5055250;28;20120;-28
2022/09/30 12:37:24;;;;;;;1.77;1.00;;;16.50;1.00;;;;;;5061546;28;20127;-28
2022/09/30 12:40:10;;;;;;;2.28;1.10;;;16.50;99.90;;;;;;5073524;28;20101;-27
2022/09/30 12:43:13;;;;;;;2.40;0.82;;;16.60;1.00;;;;;;5056522;28;20419;-27
2022/09/30 12:45:44;;;;;;;1.83;1.38;;;17.30;99.90;;;;;;5066185;28;20075;-28
2022/09/30 12:48:17;;;;;;;1.25;0.90;;;18.20;99.90;;;;;;5069670;28;20060;-28
2022/09/30 12:50:48;;;;;;;;;;;18.50;88.10;;;;;;5064875;28;20490;-27
2022/09/30 12:53:23;;;;;;;2.65;0.90;;;18.20;1.00;;;;;;5074519;28;19928;-28
2022/09/30 12:55:50;;;;;;;3.03;1.00;;;18.10;99.90;;;;;;5057633;28;20083;-28
2022/09/30 12:58:25;;;;;;;5.45;0.75;;;18.50;99.90;;;;;;5055916;28;20558;-28
2022/09/30 13:01:12;;;;;;;4.10;1.30;;;18.70;1.00;;;;;;5052778;28;20495;-28
2022/09/30 13:03:58;;;;;;;1.70;0.70;;;18.80;1.00;;;;;;5063229;28;20049;-28
2022/09/30 13:06:26;;;;;;;1.50;1.00;;;18.70;1.00;;;;;;5062287;28;20049;-28
2022/09/30 13:09:10;;;;;;;2.85;1.20;;;18.50;27.20;;;;;;5058304;28;20060;-29
2022/09/30 13:11:41;;;;;;;3.53;1.25;;;18.80;1.00;;;;;;5053645;28;20045;-28
2022/09/30 13:14:26;;;;;;;1.55;0.90;;;18.60;1.00;;;;;;5055820;28;20059;-28
2022/09/30 13:17:07;;;;;;;3.67;1.20;;;18.10;1.00;;;;;;5052318;28;20075;-27